Time;durP1;ratioP1;P1;durP2;ratioP2;P2;SDS_P1;SDS_P2;PMS_P1;PMS_P2;Temp;Humidity;BMP_temperature;BMP_pressure;BME280_temperature;BME280_humidity;BME280_pressure;Samples;Min_cycle;Max_cycle;Signal;HPM_P1;HPM_P2
2022/11/22 00:01:52;;;;;;;14.48;7.43;;;1.40;92.40;;;;;;4971548;28;20071;-72
2022/11/22 00:04:18;;;;;;;13.55;7.72;;;1.40;92.60;;;;;;4971317;28;20030;-72
2022/11/22 00:06:44;;;;;;;14.40;7.82;;;1.40;92.70;;;;;;4966838;28;20077;-70
2022/11/22 00:09:09;;;;;;;13.65;7.07;;;1.40;92.60;;;;;;4965257;28;20064;-72
2022/11/22 00:11:35;;;;;;;17.55;8.15;;;1.40;92.60;;;;;;4977508;28;20037;-70
2022/11/22 00:14:01;;;;;;;15.98;7.90;;;1.40;92.60;;;;;;4983386;28;20031;-72
2022/11/22 00:16:26;;;;;;;15.93;8.30;;;1.40;92.60;;;;;;4984884;28;20137;-72
2022/11/22 00:18:52;;;;;;;14.65;7.50;;;1.40;92.50;;;;;;4981232;28;20081;-70
2022/11/22 00:21:18;;;;;;;15.23;9.15;;;1.40;92.40;;;;;;4976498;28;20145;-70
2022/11/22 00:23:43;;;;;;;15.55;8.13;;;1.40;92.40;;;;;;4968028;28;20046;-72
2022/11/22 00:26:10;;;;;;;18.23;8.25;;;1.40;92.40;;;;;;4980493;28;20038;-69
2022/11/22 00:28:38;;;;;;;14.65;7.95;;;1.30;92.60;;;;;;4963786;28;20887;-70
2022/11/22 00:31:04;;;;;;;14.32;8.20;;;1.20;92.70;;;;;;4977326;28;20133;-69
2022/11/22 00:33:30;;;;;;;16.33;7.82;;;1.10;93.00;;;;;;4982041;28;20025;-71
2022/11/22 00:35:55;;;;;;;16.88;8.52;;;1.10;93.10;;;;;;4977225;28;20043;-71
2022/11/22 00:38:21;;;;;;;14.63;8.50;;;1.00;93.10;;;;;;4977288;28;20043;-70
2022/11/22 00:40:47;;;;;;;15.90;8.75;;;1.00;93.20;;;;;;4968764;28;20053;-70
2022/11/22 00:43:12;;;;;;;17.30;8.77;;;1.00;93.30;;;;;;4970854;28;20211;-70
2022/11/22 00:45:41;;;;;;;18.35;8.88;;;1.10;93.40;;;;;;4964828;28;20126;-70
2022/11/22 00:48:07;;;;;;;17.98;8.77;;;1.00;93.30;;;;;;4970880;28;20038;-69
2022/11/22 00:50:33;;;;;;;19.70;9.80;;;1.00;93.10;;;;;;4983197;28;20036;-71
2022/11/22 00:52:59;;;;;;;16.92;9.15;;;1.00;93.10;;;;;;4979371;28;20066;-70
2022/11/22 00:55:24;;;;;;;21.20;10.10;;;1.00;93.20;;;;;;4978863;28;20042;-70
2022/11/22 00:57:50;;;;;;;19.83;10.48;;;1.00;93.00;;;;;;4975594;28;20042;-70
2022/11/22 01:00:16;;;;;;;18.10;9.15;;;1.00;93.10;;;;;;4970123;28;20034;-69
2022/11/22 01:02:42;;;;;;;22.00;10.45;;;1.00;93.20;;;;;;4971825;28;20041;-69
2022/11/22 01:05:08;;;;;;;21.13;10.90;;;0.90;93.00;;;;;;4972294;28;20039;-70
2022/11/22 01:07:34;;;;;;;18.63;9.73;;;0.90;93.30;;;;;;4971966;28;20136;-70
2022/11/22 01:10:00;;;;;;;17.88;8.95;;;0.80;93.40;;;;;;5007650;28;20035;-70
2022/11/22 01:12:26;;;;;;;17.42;9.32;;;0.80;93.30;;;;;;4986727;28;20034;-70
2022/11/22 01:14:51;;;;;;;15.75;8.68;;;0.80;93.30;;;;;;4978193;28;20045;-70
2022/11/22 01:17:17;;;;;;;18.73;9.38;;;0.70;93.40;;;;;;4976222;28;20039;-69
2022/11/22 01:19:43;;;;;;;21.33;10.38;;;0.70;93.70;;;;;;4971732;28;20105;-70
2022/11/22 01:22:08;;;;;;;14.63;8.45;;;0.70;93.70;;;;;;4968402;28;20115;-70
2022/11/22 01:24:34;;;;;;;19.55;10.25;;;0.60;93.80;;;;;;4968087;28;20146;-70
2022/11/22 01:27:00;;;;;;;18.58;9.90;;;0.50;94.10;;;;;;4981140;28;20182;-70
2022/11/22 01:29:26;;;;;;;18.08;10.18;;;0.50;94.00;;;;;;4984439;28;20049;-69
2022/11/22 01:31:51;;;;;;;18.65;8.98;;;0.70;94.20;;;;;;4979435;28;20575;-70
2022/11/22 01:34:17;;;;;;;18.27;9.45;;;0.70;93.80;;;;;;4980772;28;20030;-70
2022/11/22 01:36:43;;;;;;;20.58;10.30;;;0.70;93.60;;;;;;4976499;28;20495;-70
2022/11/22 01:39:08;;;;;;;19.05;9.68;;;0.70;93.60;;;;;;4971353;28;20539;-70
2022/11/22 01:41:34;;;;;;;20.95;10.35;;;0.60;94.00;;;;;;4971443;28;20089;-69
2022/11/22 01:44:20;;;;;;;19.55;9.85;;;0.70;93.80;;;;;;4977573;28;20042;-69
2022/11/22 01:47:11;;;;;;;20.27;10.70;;;0.70;93.70;;;;;;4986521;28;20092;-70
2022/11/22 01:49:45;;;;;;;22.92;10.13;;;0.70;93.80;;;;;;4976275;28;20041;-70
2022/11/22 01:52:20;;;;;;;18.48;10.32;;;0.60;93.90;;;;;;4978183;28;20030;-71
2022/11/22 01:55:01;;;;;;;22.05;10.27;;;0.70;94.00;;;;;;4975868;28;20114;-71
2022/11/22 01:57:31;;;;;;;19.45;10.38;;;0.70;93.80;;;;;;4973890;28;20123;-71
2022/11/22 02:00:04;;;;;;;20.45;9.70;;;0.70;93.80;;;;;;4968496;28;20037;-71
2022/11/22 02:02:32;;;;;;;28.73;11.63;;;0.70;93.80;;;;;;4972599;28;20065;-72
2022/11/22 02:05:05;;;;;;;21.80;11.23;;;0.80;93.80;;;;;;4982439;28;20039;-72
2022/11/22 02:07:41;;;;;;;23.90;11.10;;;0.80;93.60;;;;;;4995053;28;20077;-72
2022/11/22 02:10:08;;;;;;;21.05;10.27;;;0.80;93.50;;;;;;4978836;28;20462;-71
2022/11/22 02:12:35;;;;;;;20.73;10.50;;;0.70;93.40;;;;;;4979540;28;20092;-72
2022/11/22 02:15:02;;;;;;;20.73;10.45;;;0.70;93.70;;;;;;4974016;28;20035;-72
2022/11/22 02:17:28;;;;;;;19.80;9.85;;;0.70;93.80;;;;;;4985171;28;20038;-71
2022/11/22 02:19:54;;;;;;;19.13;9.60;;;0.70;93.80;;;;;;4967118;28;20478;-72
2022/11/22 02:22:32;;;;;;;19.95;10.98;;;0.70;93.70;;;;;;4967025;28;20039;-72
2022/11/22 02:25:07;;;;;;;21.85;11.13;;;0.80;93.70;;;;;;4980869;28;20145;-72
2022/11/22 02:27:32;;;;;;;21.30;10.82;;;0.80;93.60;;;;;;4980236;28;20057;-72
2022/11/22 02:29:58;;;;;;;22.48;10.38;;;0.90;93.50;;;;;;4975106;28;20671;-70
2022/11/22 02:32:24;;;;;;;24.17;10.63;;;0.90;93.80;;;;;;4982025;28;20046;-72
2022/11/22 02:34:50;;;;;;;24.83;11.13;;;0.90;93.40;;;;;;4976859;28;20037;-72
2022/11/22 02:37:26;;;;;;;19.77;10.48;;;1.00;93.30;;;;;;4974901;28;20523;-72
2022/11/22 02:39:59;;;;;;;22.30;10.60;;;0.90;93.30;;;;;;4964609;28;20026;-72
2022/11/22 02:42:27;;;;;;;20.08;10.02;;;0.80;93.50;;;;;;4980377;28;20499;-72
2022/11/22 02:44:53;;;;;;;21.67;9.80;;;0.80;93.40;;;;;;4983030;28;20153;-72
2022/11/22 02:47:19;;;;;;;20.48;10.70;;;0.70;93.60;;;;;;4978360;28;20037;-72
2022/11/22 02:49:44;;;;;;;20.40;9.80;;;0.70;93.80;;;;;;4975025;28;20130;-72
2022/11/22 02:52:14;;;;;;;18.90;9.35;;;0.70;93.80;;;;;;4972436;28;20134;-72
2022/11/22 02:54:40;;;;;;;24.85;11.70;;;0.60;93.90;;;;;;4970130;28;20102;-72
2022/11/22 02:57:05;;;;;;;20.63;10.55;;;0.80;93.70;;;;;;4985309;28;20034;-72
2022/11/22 02:59:31;;;;;;;20.23;9.98;;;0.80;93.40;;;;;;4972843;28;20042;-72
2022/11/22 03:01:57;;;;;;;23.35;11.15;;;0.70;93.50;;;;;;4978682;28;20027;-72
2022/11/22 03:04:26;;;;;;;21.15;10.02;;;0.70;93.60;;;;;;4982656;28;20034;-72
2022/11/22 03:06:56;;;;;;;25.60;10.70;;;0.60;93.50;;;;;;4975249;28;20128;-72
2022/11/22 03:09:24;;;;;;;20.90;9.85;;;0.50;93.60;;;;;;4978852;28;20034;-72
2022/11/22 03:11:50;;;;;;;20.92;10.80;;;0.60;93.80;;;;;;4969779;28;20030;-72
2022/11/22 03:14:16;;;;;;;25.35;10.45;;;0.60;93.70;;;;;;4970369;28;20065;-72
2022/11/22 03:16:43;;;;;;;23.95;11.25;;;0.60;93.60;;;;;;4965789;28;20039;-72
2022/11/22 03:19:09;;;;;;;25.90;11.48;;;0.50;93.60;;;;;;4964684;28;20038;-70
2022/11/22 03:21:36;;;;;;;27.05;12.18;;;0.60;93.70;;;;;;4983784;28;20774;-69
2022/11/22 03:24:02;;;;;;;29.17;12.50;;;0.60;93.40;;;;;;4977684;28;20042;-72
2022/11/22 03:26:28;;;;;;;24.42;11.00;;;0.50;93.60;;;;;;4978064;28;20037;-72
2022/11/22 03:28:54;;;;;;;22.10;11.27;;;0.40;93.80;;;;;;4971929;28;20034;-71
2022/11/22 03:31:20;;;;;;;22.48;11.23;;;0.40;93.90;;;;;;4972129;28;20027;-72
2022/11/22 03:33:45;;;;;;;23.50;10.82;;;0.30;93.90;;;;;;4971885;28;20035;-71
2022/11/22 03:36:11;;;;;;;24.55;12.30;;;0.30;94.00;;;;;;4966708;28;20061;-72
2022/11/22 03:38:37;;;;;;;23.05;10.57;;;0.30;94.10;;;;;;4975120;28;20045;-72
2022/11/22 03:41:03;;;;;;;23.15;11.55;;;0.30;94.00;;;;;;4976914;28;20069;-72
2022/11/22 03:43:28;;;;;;;23.75;10.93;;;0.20;94.30;;;;;;4981924;28;20029;-70
2022/11/22 03:45:54;;;;;;;25.27;12.65;;;0.30;94.20;;;;;;4972541;28;20045;-69
2022/11/22 03:48:20;;;;;;;24.92;11.07;;;0.20;94.10;;;;;;4974432;28;20031;-72
2022/11/22 03:50:46;;;;;;;22.67;11.07;;;0.30;94.40;;;;;;4975124;28;20649;-72
2022/11/22 03:53:12;;;;;;;23.80;11.45;;;0.30;94.10;;;;;;4967990;28;20030;-72
2022/11/22 03:55:38;;;;;;;25.60;12.77;;;0.30;94.10;;;;;;4967851;28;20142;-72
2022/11/22 03:58:04;;;;;;;24.60;11.98;;;0.40;94.00;;;;;;4970620;28;20041;-71
2022/11/22 04:00:30;;;;;;;24.13;10.77;;;0.30;94.10;;;;;;4983143;28;20030;-71
2022/11/22 04:02:56;;;;;;;25.98;12.02;;;0.30;94.20;;;;;;4975133;28;20423;-72
2022/11/22 04:05:22;;;;;;;24.52;12.20;;;0.40;94.20;;;;;;4982316;28;20031;-72
2022/11/22 04:07:48;;;;;;;23.67;11.55;;;0.30;94.30;;;;;;4970180;28;20123;-70
2022/11/22 04:10:14;;;;;;;28.95;12.05;;;0.40;94.20;;;;;;4978719;28;20495;-72
2022/11/22 04:12:39;;;;;;;27.92;12.98;;;0.40;94.10;;;;;;4966447;28;20022;-72
2022/11/22 04:15:05;;;;;;;23.63;12.18;;;0.40;94.10;;;;;;4975429;28;20117;-72
2022/11/22 04:17:43;;;;;;;24.08;11.85;;;0.40;94.10;;;;;;4978162;28;20042;-71
2022/11/22 04:23:01;;;;;;;22.73;11.65;;;0.20;94.40;;;;;;4974033;28;20042;-72
2022/11/22 04:25:28;;;;;;;28.77;12.38;;;0.30;94.40;;;;;;4975154;28;20030;-72
2022/11/22 04:27:55;;;;;;;25.42;12.35;;;0.40;94.40;;;;;;4969264;28;20039;-72
2022/11/22 04:32:44;;;;;;;29.95;11.90;;;0.40;94.10;;;;;;4968167;28;20042;-72
2022/11/22 04:33:08;;;;;;;24.38;11.80;;;0.30;94.40;;;;;;4968649;28;20479;-72
2022/11/22 04:35:34;;;;;;;27.80;12.80;;;0.30;94.40;;;;;;4984955;28;20120;-72
2022/11/22 04:37:59;;;;;;;30.30;12.38;;;0.40;94.30;;;;;;4987104;28;20133;-72
2022/11/22 04:40:25;;;;;;;27.27;12.02;;;0.40;94.10;;;;;;4979208;28;20035;-72
2022/11/22 04:45:35;;;;;;;30.02;12.90;;;0.50;94.10;;;;;;4977205;28;20524;-72
2022/11/22 04:48:01;;;;;;;26.58;13.10;;;0.50;94.00;;;;;;4974320;28;20034;-72
2022/11/22 04:53:15;;;;;;;30.48;12.35;;;0.60;94.20;;;;;;4972828;28;20121;-72
2022/11/22 04:55:43;;;;;;;28.98;13.32;;;0.60;94.00;;;;;;4982516;28;20060;-72
2022/11/22 04:58:10;;;;;;;27.98;12.45;;;0.70;93.80;;;;;;4975355;28;20027;-72
2022/11/22 05:00:36;;;;;;;24.65;11.52;;;0.70;93.60;;;;;;4977996;28;20041;-72
2022/11/22 05:03:03;;;;;;;27.38;12.57;;;0.70;93.80;;;;;;4970628;28;20042;-72
2022/11/22 05:05:29;;;;;;;30.52;12.38;;;0.70;93.70;;;;;;4974614;28;20053;-72
2022/11/22 05:07:57;;;;;;;24.15;11.82;;;0.60;94.00;;;;;;4967124;28;20038;-72
2022/11/22 05:10:23;;;;;;;34.45;13.80;;;0.70;94.10;;;;;;4965467;28;20042;-72
2022/11/22 05:12:49;;;;;;;29.00;12.15;;;0.70;94.00;;;;;;4977701;28;20445;-72
2022/11/22 05:15:15;;;;;;;30.85;13.38;;;0.80;93.50;;;;;;4978214;28;20050;-72
2022/11/22 05:17:40;;;;;;;26.25;12.57;;;0.80;93.70;;;;;;4977807;28;20038;-72
2022/11/22 05:20:08;;;;;;;31.10;13.40;;;0.80;93.80;;;;;;4971590;28;20039;-72
2022/11/22 05:25:18;;;;;;;32.40;14.27;;;0.80;93.70;;;;;;4972749;28;20047;-72
2022/11/22 05:27:44;;;;;;;26.38;13.07;;;0.80;94.00;;;;;;4964040;28;20339;-70
2022/11/22 05:30:10;;;;;;;28.35;12.65;;;0.70;93.90;;;;;;4962804;28;20030;-72
2022/11/22 05:32:36;;;;;;;31.48;13.63;;;0.70;94.00;;;;;;4976971;28;20641;-72
2022/11/22 05:35:02;;;;;;;29.15;13.32;;;0.80;94.10;;;;;;4978706;28;20034;-72
2022/11/22 05:37:28;;;;;;;28.75;13.30;;;0.70;94.10;;;;;;4978972;28;20025;-72
2022/11/22 05:39:53;;;;;;;33.72;14.98;;;0.80;94.20;;;;;;4974793;28;20045;-71
2022/11/22 05:42:19;;;;;;;36.17;14.98;;;0.80;94.20;;;;;;4971854;28;20042;-72
2022/11/22 05:44:45;;;;;;;30.80;12.95;;;0.70;94.50;;;;;;4972206;28;20043;-72
2022/11/22 05:47:11;;;;;;;32.47;13.90;;;0.60;94.50;;;;;;4970059;28;20039;-71
2022/11/22 05:49:37;;;;;;;28.88;13.02;;;0.60;94.70;;;;;;4970544;28;20043;-71
2022/11/22 05:52:03;;;;;;;34.38;14.32;;;0.50;95.10;;;;;;4984266;28;20037;-72
2022/11/22 05:54:29;;;;;;;32.20;13.93;;;0.50;95.10;;;;;;4983772;28;20568;-72
2022/11/22 05:56:55;;;;;;;34.15;14.63;;;0.50;95.20;;;;;;4981371;28;20740;-72
2022/11/22 05:59:21;;;;;;;38.85;14.77;;;0.50;95.20;;;;;;4977928;28;20038;-72
2022/11/22 06:01:47;;;;;;;37.47;14.50;;;0.60;95.10;;;;;;4981669;28;20042;-71
2022/11/22 06:04:13;;;;;;;37.17;14.48;;;0.60;95.10;;;;;;4971704;28;20082;-72
2022/11/22 06:06:38;;;;;;;35.22;14.10;;;0.60;94.90;;;;;;4967437;28;20034;-72
2022/11/22 06:09:04;;;;;;;34.40;14.48;;;0.50;95.20;;;;;;4969684;28;20105;-72
2022/11/22 06:11:30;;;;;;;36.45;15.30;;;0.50;95.40;;;;;;4985222;28;20045;-72
2022/11/22 06:13:59;;;;;;;34.00;15.15;;;0.50;95.50;;;;;;4979187;28;20537;-72
2022/11/22 06:16:26;;;;;;;38.08;15.48;;;0.50;95.70;;;;;;4982617;28;20045;-72
2022/11/22 06:18:55;;;;;;;38.45;15.65;;;0.60;95.50;;;;;;4977716;28;20111;-72
2022/11/22 06:21:22;;;;;;;33.20;13.82;;;0.60;95.30;;;;;;4975350;28;20045;-72
2022/11/22 06:23:49;;;;;;;35.90;14.75;;;0.60;95.50;;;;;;4968636;28;20031;-72
2022/11/22 06:26:17;;;;;;;39.20;16.67;;;0.60;95.40;;;;;;4975108;28;20109;-72
2022/11/22 06:28:45;;;;;;;36.13;15.38;;;0.70;95.50;;;;;;4976186;28;20026;-72
2022/11/22 06:31:16;;;;;;;38.55;15.25;;;0.60;95.40;;;;;;4983099;28;20037;-72
2022/11/22 06:33:43;;;;;;;38.47;15.98;;;0.70;95.50;;;;;;4982218;28;20038;-72
2022/11/22 06:36:14;;;;;;;38.88;15.55;;;0.70;95.40;;;;;;4973906;28;20502;-72
2022/11/22 06:38:41;;;;;;;36.38;15.15;;;0.80;95.40;;;;;;4972813;28;20395;-72
2022/11/22 06:41:09;;;;;;;39.15;15.43;;;0.80;95.40;;;;;;4968931;28;20506;-72
2022/11/22 06:43:36;;;;;;;37.38;14.95;;;0.80;95.50;;;;;;4976798;28;20047;-72
2022/11/22 06:46:03;;;;;;;33.17;14.45;;;0.90;95.40;;;;;;4969244;28;20031;-72
2022/11/22 06:48:31;;;;;;;35.63;14.57;;;1.00;95.20;;;;;;4977367;28;20045;-72
2022/11/22 06:50:58;;;;;;;40.70;16.27;;;1.10;95.10;;;;;;4976533;28;20118;-71
2022/11/22 06:53:26;;;;;;;36.00;15.32;;;1.20;94.80;;;;;;4981193;28;20039;-71
2022/11/22 06:55:57;;;;;;;34.58;16.00;;;1.20;94.90;;;;;;4974695;28;20042;-72
2022/11/22 06:58:24;;;;;;;65.03;24.38;;;1.20;94.80;;;;;;4973737;28;20042;-72
2022/11/22 07:00:50;;;;;;;38.17;15.15;;;1.20;94.80;;;;;;4967848;28;20054;-72
2022/11/22 07:03:16;;;;;;;37.90;16.13;;;1.20;94.90;;;;;;4970852;28;20042;-72
2022/11/22 07:05:52;;;;;;;39.85;16.55;;;1.10;95.00;;;;;;4975825;28;20029;-72
2022/11/22 07:08:18;;;;;;;;;;;1.10;95.10;;;;;;4980484;28;20399;-71
2022/11/22 07:10:44;;;;;;;40.27;15.17;;;1.10;94.90;;;;;;4968628;28;19909;-69
2022/11/22 07:13:10;;;;;;;36.67;15.40;;;1.10;95.00;;;;;;4976697;28;20026;-72
2022/11/22 07:15:35;;;;;;;37.83;16.02;;;1.10;95.10;;;;;;4975344;28;20042;-72
2022/11/22 07:18:01;;;;;;;39.28;15.50;;;1.10;95.10;;;;;;4971089;28;20030;-72
2022/11/22 07:20:27;;;;;;;35.13;14.57;;;1.10;95.10;;;;;;4969318;28;20031;-70
2022/11/22 07:22:53;;;;;;;33.33;14.82;;;1.10;95.10;;;;;;4965835;28;20038;-69
2022/11/22 07:25:19;;;;;;;36.65;15.48;;;1.10;95.10;;;;;;4973794;28;20034;-68
2022/11/22 07:27:44;;;;;;;39.38;15.65;;;1.10;95.40;;;;;;4985894;28;20045;-71
2022/11/22 07:30:11;;;;;;;34.47;13.57;;;1.20;95.20;;;;;;4975776;28;20066;-77
2022/11/22 07:32:36;;;;;;;37.15;15.73;;;1.30;94.70;;;;;;4977958;28;20139;-73
2022/11/22 07:35:02;;;;;;;33.78;14.85;;;1.30;94.80;;;;;;4973678;28;20119;-71
2022/11/22 07:37:30;;;;;;;37.13;15.27;;;1.20;94.90;;;;;;4971839;28;20029;-73
2022/11/22 07:39:56;;;;;;;34.58;15.52;;;1.30;95.00;;;;;;4970297;28;20047;-73
2022/11/22 07:42:22;;;;;;;37.20;14.98;;;1.30;95.10;;;;;;4965591;28;20065;-75
2022/11/22 07:44:47;;;;;;;33.17;13.82;;;1.30;94.80;;;;;;4982136;28;20047;-71
2022/11/22 07:47:13;;;;;;;31.90;14.25;;;1.30;94.80;;;;;;4981741;28;20046;-77
2022/11/22 07:49:39;;;;;;;35.40;15.05;;;1.30;95.00;;;;;;4981829;28;20135;-74
2022/11/22 07:52:05;;;;;;;34.97;15.20;;;1.40;95.00;;;;;;4976422;28;20113;-72
2022/11/22 07:54:31;;;;;;;35.85;14.43;;;1.40;94.80;;;;;;4986552;28;20030;-67
2022/11/22 07:56:57;;;;;;;38.25;14.75;;;1.20;95.00;;;;;;4968307;28;20076;-68
2022/11/22 07:59:24;;;;;;;38.28;15.80;;;1.20;95.20;;;;;;4967315;28;20041;-71
2022/11/22 08:01:49;;;;;;;38.83;15.43;;;1.30;95.10;;;;;;4963382;28;20097;-71
2022/11/22 08:04:15;;;;;;;34.35;13.80;;;1.40;95.00;;;;;;4979819;28;20140;-70
2022/11/22 08:06:41;;;;;;;38.25;15.90;;;1.40;95.00;;;;;;4979986;28;20063;-70
2022/11/22 08:09:07;;;;;;;34.13;15.30;;;1.40;94.90;;;;;;4977977;28;20088;-72
2022/11/22 08:11:32;;;;;;;37.53;15.25;;;1.40;95.10;;;;;;4979541;28;20041;-69
2022/11/22 08:13:58;;;;;;;35.45;15.73;;;1.50;94.90;;;;;;4967797;28;20030;-69
2022/11/22 08:16:24;;;;;;;36.80;15.30;;;1.50;94.60;;;;;;4974913;28;20112;-70
2022/11/22 08:18:50;;;;;;;38.58;15.95;;;1.60;94.70;;;;;;4972478;28;20121;-71
2022/11/22 08:21:17;;;;;;;32.75;14.20;;;1.70;94.60;;;;;;4965182;28;20069;-70
2022/11/22 08:23:44;;;;;;;36.50;15.52;;;1.70;94.30;;;;;;4980921;28;20037;-70
2022/11/22 08:26:13;;;;;;;37.25;16.08;;;1.70;94.20;;;;;;4970229;28;20038;-71
2022/11/22 08:28:40;;;;;;;38.70;14.98;;;1.70;94.80;;;;;;4977168;28;20030;-71
2022/11/22 08:31:09;;;;;;;31.90;13.55;;;1.80;94.40;;;;;;4975461;28;20039;-71
2022/11/22 08:33:35;;;;;;;31.73;14.18;;;1.70;94.50;;;;;;4975968;28;20061;-71
2022/11/22 08:36:01;;;;;;;36.83;15.07;;;1.80;94.30;;;;;;4965601;28;20134;-71
2022/11/22 08:38:27;;;;;;;32.03;13.80;;;1.80;94.20;;;;;;4964329;28;20260;-71
2022/11/22 08:40:53;;;;;;;35.88;14.63;;;1.80;94.30;;;;;;4983849;28;20045;-71
2022/11/22 08:43:19;;;;;;;35.60;14.52;;;1.80;94.50;;;;;;4979285;28;20035;-71
2022/11/22 08:45:47;;;;;;;31.75;14.07;;;1.80;94.30;;;;;;4981328;28;20077;-70
2022/11/22 08:48:13;;;;;;;34.10;14.43;;;1.80;94.60;;;;;;4972675;28;20034;-71
2022/11/22 08:50:39;;;;;;;34.45;14.35;;;1.80;94.40;;;;;;4971553;28;20038;-70
2022/11/22 08:53:04;;;;;;;31.48;13.70;;;1.80;94.50;;;;;;4969602;28;20047;-70
2022/11/22 08:55:30;;;;;;;32.53;14.43;;;1.80;94.50;;;;;;4971531;28;20034;-70
2022/11/22 08:57:59;;;;;;;34.20;15.20;;;1.70;94.70;;;;;;4961632;28;20065;-70
2022/11/22 09:00:25;;;;;;;32.95;13.25;;;1.70;94.70;;;;;;4986523;28;20034;-71
2022/11/22 09:02:51;;;;;;;32.28;14.98;;;1.90;94.80;;;;;;4976591;28;20046;-70
2022/11/22 09:05:17;;;;;;;34.42;15.02;;;2.00;94.40;;;;;;4976957;28;20044;-72
2022/11/22 09:07:43;;;;;;;33.95;13.05;;;2.00;94.30;;;;;;4973595;28;20031;-70
2022/11/22 09:10:09;;;;;;;36.08;14.38;;;2.10;94.50;;;;;;4970431;28;20149;-71
2022/11/22 09:12:34;;;;;;;33.80;14.50;;;2.20;94.10;;;;;;4967334;28;20074;-70
2022/11/22 09:15:00;;;;;;;37.67;16.48;;;2.20;94.00;;;;;;4966125;28;20023;-70
2022/11/22 09:17:26;;;;;;;33.17;13.82;;;2.30;93.90;;;;;;4966189;28;20085;-70
2022/11/22 09:19:52;;;;;;;31.17;14.45;;;2.20;93.60;;;;;;4976728;28;20037;-71
2022/11/22 09:22:17;;;;;;;31.38;14.55;;;2.20;93.90;;;;;;4975611;28;20038;-71
2022/11/22 09:24:43;;;;;;;33.08;14.40;;;2.20;94.10;;;;;;4977559;28;20026;-70
2022/11/22 09:27:09;;;;;;;29.77;12.95;;;2.20;94.40;;;;;;4982721;28;20022;-70
2022/11/22 09:29:34;;;;;;;31.73;13.25;;;2.10;94.50;;;;;;4979160;28;20104;-71
2022/11/22 09:32:02;;;;;;;32.20;13.57;;;2.00;94.50;;;;;;4968207;28;20042;-72
2022/11/22 09:34:28;;;;;;;35.03;13.90;;;2.00;94.70;;;;;;4972049;28;20157;-71
2022/11/22 09:36:53;;;;;;;34.20;13.88;;;2.00;94.90;;;;;;4972549;28;20140;-72
2022/11/22 09:39:19;;;;;;;29.83;12.43;;;2.00;95.10;;;;;;4981242;28;20035;-71
2022/11/22 09:41:56;;;;;;;33.45;14.60;;;2.00;95.10;;;;;;4979156;28;20400;-67
2022/11/22 09:44:21;;;;;;;38.85;14.35;;;2.00;95.20;;;;;;4983230;28;20042;-65
2022/11/22 09:46:57;;;;;;;36.60;14.32;;;2.00;95.50;;;;;;4971959;28;20071;-66
2022/11/22 09:49:55;;;;;;;32.78;13.35;;;2.00;95.40;;;;;;4975536;28;20454;-66
2022/11/22 09:52:51;;;;;;;33.38;14.60;;;2.10;95.30;;;;;;4968351;28;20039;-66
2022/11/22 09:55:26;;;;;;;31.95;13.18;;;2.10;95.10;;;;;;4971036;28;20053;-67
2022/11/22 09:58:07;;;;;;;42.65;14.05;;;2.20;95.10;;;;;;4980959;28;20553;-67
2022/11/22 10:00:33;;;;;;;35.60;14.50;;;2.30;94.90;;;;;;4982806;28;20117;-64
2022/11/22 10:03:05;;;;;;;38.03;14.65;;;2.50;95.00;;;;;;4976403;28;20042;-66
2022/11/22 10:05:40;;;;;;;32.65;13.82;;;2.50;94.70;;;;;;4979933;28;20089;-67
2022/11/22 10:08:21;;;;;;;35.75;13.77;;;2.50;94.60;;;;;;4976381;28;20062;-70
2022/11/22 10:10:52;;;;;;;33.63;13.90;;;2.60;94.60;;;;;;4972867;28;20043;-67
2022/11/22 10:13:37;;;;;;;34.00;13.13;;;2.50;94.70;;;;;;4987097;28;20647;-69
2022/11/22 10:16:10;;;;;;;31.60;13.05;;;2.50;94.90;;;;;;4979568;28;20173;-69
2022/11/22 10:18:42;;;;;;;31.98;12.98;;;2.40;95.10;;;;;;4975262;28;20038;-68
2022/11/22 10:21:12;;;;;;;30.70;12.95;;;2.40;95.30;;;;;;4978669;28;20722;-69
2022/11/22 10:23:40;;;;;;;30.17;14.10;;;2.30;95.40;;;;;;4974047;28;20080;-67
2022/11/22 10:26:23;;;;;;;31.25;13.20;;;2.40;95.50;;;;;;4970397;28;20039;-68
2022/11/22 10:29:13;;;;;;;34.03;12.95;;;2.60;95.50;;;;;;4969585;28;20031;-69
2022/11/22 10:31:42;;;;;;;29.98;12.27;;;2.60;95.20;;;;;;4968619;28;20038;-70
2022/11/22 10:34:36;;;;;;;34.85;15.05;;;2.50;95.40;;;;;;4975002;28;20035;-70
2022/11/22 10:37:25;;;;;;;34.63;14.02;;;2.60;95.50;;;;;;4975785;28;20824;-69
2022/11/22 10:40:09;;;;;;;40.72;13.55;;;2.70;95.30;;;;;;4985015;28;20399;-72
2022/11/22 10:43:16;;;;;;;33.90;13.45;;;2.80;95.00;;;;;;4978163;28;20115;-71
2022/11/22 10:46:01;;;;;;;30.77;12.07;;;2.80;95.00;;;;;;4976409;28;20058;-66
2022/11/22 10:48:58;;;;;;;33.92;14.70;;;2.80;95.40;;;;;;4969573;28;20703;-70
2022/11/22 10:51:28;;;;;;;30.60;13.15;;;2.80;95.20;;;;;;4943036;28;20061;-71
2022/11/22 10:54:03;;;;;;;38.03;15.15;;;2.90;95.40;;;;;;4978312;28;20042;-72
2022/11/22 10:56:48;;;;;;;28.67;12.10;;;2.80;95.40;;;;;;4986940;28;20065;-72
2022/11/22 10:59:33;;;;;;;31.05;13.93;;;2.70;95.70;;;;;;4976718;28;20047;-71
2022/11/22 11:02:09;;;;;;;29.33;12.90;;;2.80;95.50;;;;;;4971806;28;20577;-71
2022/11/22 11:04:39;;;;;;;30.92;13.27;;;2.90;95.60;;;;;;4972738;28;20045;-71
2022/11/22 11:07:10;;;;;;;34.22;13.88;;;3.00;95.50;;;;;;4970305;28;20478;-70
2022/11/22 11:09:37;;;;;;;31.83;13.18;;;3.00;95.30;;;;;;4972525;28;20069;-71
2022/11/22 11:12:11;;;;;;;34.35;13.38;;;3.10;95.30;;;;;;4976145;28;20138;-72
2022/11/22 11:14:44;;;;;;;32.58;13.90;;;3.10;95.20;;;;;;4975727;28;20606;-72
2022/11/22 11:17:22;;;;;;;35.35;13.38;;;3.10;94.90;;;;;;4990086;28;20035;-66
2022/11/22 11:19:49;;;;;;;33.53;13.90;;;3.20;95.20;;;;;;4973509;28;20106;-69
2022/11/22 11:22:20;;;;;;;30.40;12.45;;;3.20;94.90;;;;;;4974484;28;20046;-67
2022/11/22 11:24:46;;;;;;;36.00;15.32;;;3.30;94.80;;;;;;4973979;28;20085;-69
2022/11/22 11:27:14;;;;;;;34.58;14.77;;;3.40;95.00;;;;;;4977115;28;20042;-65
2022/11/22 11:30:01;;;;;;;35.85;14.73;;;3.50;94.80;;;;;;4974538;28;20030;-69
2022/11/22 11:32:27;;;;;;;34.20;14.02;;;3.60;94.30;;;;;;4977632;28;21968;-65
2022/11/22 11:35:06;;;;;;;40.20;16.92;;;3.70;94.50;;;;;;4979975;28;20030;-67
2022/11/22 11:37:37;;;;;;;38.78;16.08;;;3.70;93.90;;;;;;4976678;28;20034;-66
2022/11/22 11:40:05;;;;;;;30.15;13.02;;;3.70;94.20;;;;;;4977620;28;20034;-69
2022/11/22 11:42:33;;;;;;;37.30;13.90;;;3.70;94.40;;;;;;4978879;28;20154;-69
2022/11/22 11:45:19;;;;;;;35.35;15.00;;;3.80;94.40;;;;;;4975235;28;20914;-67
2022/11/22 11:47:45;;;;;;;30.00;13.48;;;3.80;94.20;;;;;;4975978;28;20030;-67
2022/11/22 11:50:19;;;;;;;31.05;12.93;;;3.70;94.10;;;;;;4980739;28;20521;-67
2022/11/22 11:53:05;;;;;;;32.10;12.93;;;3.60;94.40;;;;;;4977194;28;20030;-69
2022/11/22 11:55:34;;;;;;;32.90;14.55;;;3.70;94.40;;;;;;4981264;28;20048;-68
2022/11/22 11:58:02;;;;;;;33.72;12.93;;;3.80;94.40;;;;;;4977841;28;20505;-67
2022/11/22 12:00:36;;;;;;;34.58;14.23;;;3.80;94.30;;;;;;4975891;28;20038;-68
2022/11/22 12:03:06;;;;;;;32.83;14.27;;;3.80;94.20;;;;;;4980532;28;20716;-66
2022/11/22 12:05:33;;;;;;;27.52;13.05;;;3.80;94.50;;;;;;4978525;28;20034;-66
2022/11/22 12:08:00;;;;;;;30.42;13.70;;;3.80;94.30;;;;;;4982626;28;20035;-66
2022/11/22 12:10:53;;;;;;;33.60;14.00;;;3.90;94.30;;;;;;4977377;28;20121;-69
2022/11/22 12:13:39;;;;;;;31.20;13.55;;;4.00;94.30;;;;;;4981431;28;20073;-66
2022/11/22 12:16:12;;;;;;;31.42;12.82;;;4.10;94.20;;;;;;4978397;28;20133;-69
2022/11/22 12:18:49;;;;;;;30.65;13.38;;;4.10;93.90;;;;;;4982092;28;20431;-65
2022/11/22 12:21:27;;;;;;;30.60;12.32;;;4.10;93.80;;;;;;4980503;28;20701;-64
2022/11/22 12:24:20;;;;;;;34.72;13.70;;;4.20;93.80;;;;;;4971214;28;20394;-66
2022/11/22 12:26:46;;;;;;;28.48;13.38;;;4.30;93.70;;;;;;4977502;28;20042;-67
2022/11/22 12:29:13;;;;;;;31.88;14.02;;;4.40;93.20;;;;;;4980657;28;20070;-66
2022/11/22 12:31:53;;;;;;;30.15;13.02;;;4.50;93.20;;;;;;4979926;28;20476;-68
2022/11/22 12:34:29;;;;;;;30.92;12.93;;;4.40;93.20;;;;;;4977556;28;20455;-68
2022/11/22 12:37:06;;;;;;;32.22;13.77;;;4.50;93.10;;;;;;4981936;28;20043;-68
2022/11/22 12:39:35;;;;;;;27.02;13.05;;;4.50;93.00;;;;;;4980328;28;20042;-67
2022/11/22 12:42:12;;;;;;;33.15;14.40;;;4.50;93.30;;;;;;4974504;28;20080;-67
2022/11/22 12:44:57;;;;;;;28.65;13.10;;;4.40;93.30;;;;;;4976819;28;20128;-69
2022/11/22 12:47:32;;;;;;;27.00;12.43;;;4.30;93.50;;;;;;4978422;28;20657;-68
2022/11/22 12:50:28;;;;;;;27.77;12.50;;;4.30;93.90;;;;;;4976635;28;20570;-70
2022/11/22 12:53:20;;;;;;;32.78;13.70;;;4.30;93.70;;;;;;4977706;28;20030;-70
2022/11/22 12:55:54;;;;;;;31.38;13.05;;;4.40;93.90;;;;;;4979043;28;20042;-69
2022/11/22 12:58:50;;;;;;;34.50;14.13;;;4.50;93.50;;;;;;4974664;28;20062;-68
2022/11/22 13:01:21;;;;;;;32.75;13.43;;;4.50;93.70;;;;;;4974750;28;20670;-70